createdAt,value
2023-05-14T00:00:46.838Z,10.26
2023-05-14T00:05:48.447Z,10.23
2023-05-14T00:10:50.047Z,10.14
2023-05-14T00:15:51.605Z,10.02
2023-05-14T00:20:55.035Z,9.93
2023-05-14T00:25:56.722Z,9.83
2023-05-14T00:31:05.188Z,9.70
2023-05-14T00:36:07.973Z,9.60
2023-05-14T00:41:09.544Z,9.50
2023-05-14T00:46:12.498Z,9.42
2023-05-14T00:51:14.288Z,9.33
2023-05-14T00:56:16.646Z,9.21
2023-05-14T01:01:18.215Z,9.13
2023-05-14T01:06:36.776Z,9.04
2023-05-14T01:11:47.612Z,8.93
2023-05-14T01:16:53.148Z,8.89
2023-05-14T01:21:54.860Z,8.83
2023-05-14T01:27:03.273Z,8.71
2023-05-14T01:32:08.009Z,8.63
2023-05-14T01:37:12.668Z,8.57
2023-05-14T01:42:17.239Z,8.49
2023-05-14T01:47:19.074Z,8.44
2023-05-14T01:52:21.257Z,8.32
2023-05-14T01:57:22.765Z,8.25
2023-05-14T02:02:24.410Z,8.21
2023-05-14T02:07:26.407Z,8.13
2023-05-14T02:12:28.002Z,8.09
2023-05-14T02:17:29.656Z,8.04
2023-05-14T02:22:31.262Z,7.93
2023-05-14T02:27:32.791Z,7.88
2023-05-14T02:32:34.453Z,7.82
2023-05-14T02:37:36.185Z,7.80
2023-05-14T02:42:37.736Z,7.76
2023-05-14T02:47:39.242Z,7.74
2023-05-14T02:52:40.927Z,7.73
2023-05-14T02:57:42.409Z,7.76
2023-05-14T03:02:44.773Z,7.81
2023-05-14T03:07:46.916Z,7.83
2023-05-14T03:12:48.541Z,7.91
2023-05-14T03:17:50.139Z,8.26
2023-05-14T03:22:52.216Z,9.24
2023-05-14T03:27:53.714Z,10.50
2023-05-14T03:32:55.597Z,11.65
2023-05-14T03:37:59.242Z,12.83
2023-05-14T03:43:00.820Z,14.00
2023-05-14T03:48:03.554Z,14.44
2023-05-14T03:53:05.404Z,12.93
2023-05-14T03:58:11.068Z,11.77
2023-05-14T04:03:12.652Z,11.11
2023-05-14T04:08:14.317Z,10.85
2023-05-14T04:13:15.838Z,10.63
2023-05-14T04:18:17.368Z,10.47
2023-05-14T04:23:18.917Z,10.50
2023-05-14T04:28:20.776Z,10.49
2023-05-14T04:33:22.686Z,10.46
2023-05-14T04:38:24.177Z,10.55
2023-05-14T04:43:25.868Z,10.75
2023-05-14T04:48:27.853Z,10.98
2023-05-14T04:53:29.740Z,11.20
2023-05-14T04:58:34.617Z,11.37
2023-05-14T05:03:36.786Z,11.55
2023-05-14T05:08:38.395Z,11.82
2023-05-14T05:13:39.952Z,12.02
2023-05-14T05:18:41.721Z,12.16
2023-05-14T05:23:43.880Z,12.33
2023-05-14T05:28:45.507Z,12.50
2023-05-14T05:33:47.030Z,12.59
2023-05-14T05:38:48.525Z,12.73
2023-05-14T05:43:50.018Z,12.92
2023-05-14T05:48:53.322Z,13.14
2023-05-14T05:53:54.843Z,13.34
2023-05-14T05:58:56.366Z,13.61
2023-05-14T06:03:58.026Z,13.84
2023-05-14T06:08:59.569Z,14.01
2023-05-14T06:14:01.376Z,14.13
2023-05-14T06:19:03.238Z,14.23
2023-05-14T06:24:05.723Z,14.36
2023-05-14T06:29:07.374Z,14.54
2023-05-14T06:34:09.340Z,14.67
2023-05-14T06:39:10.897Z,14.77
2023-05-14T06:44:12.464Z,14.88
2023-05-14T06:49:14.090Z,15.06
2023-05-14T06:54:15.733Z,15.25
2023-05-14T06:59:17.355Z,15.40
2023-05-14T07:04:18.860Z,15.56
2023-05-14T07:09:20.448Z,15.72
2023-05-14T07:14:21.966Z,15.89
2023-05-14T07:19:23.575Z,16.12
2023-05-14T07:24:25.097Z,16.32
2023-05-14T07:29:26.637Z,16.52
2023-05-14T07:34:28.251Z,16.75
2023-05-14T07:39:29.750Z,16.90
2023-05-14T07:44:31.256Z,17.02
2023-05-14T07:49:32.788Z,17.13
2023-05-14T07:54:34.369Z,17.22
2023-05-14T07:59:35.933Z,17.38
2023-05-14T08:04:37.579Z,17.57
2023-05-14T08:09:39.237Z,17.69
2023-05-14T08:14:40.742Z,17.82
2023-05-14T08:19:42.252Z,18.00
2023-05-14T08:24:43.791Z,18.09
2023-05-14T08:29:45.338Z,18.30
2023-05-14T08:34:46.825Z,18.45
2023-05-14T08:39:49.177Z,18.52
2023-05-14T08:45:00.591Z,18.61
2023-05-14T08:50:08.259Z,18.69
2023-05-14T08:55:11.799Z,18.81
2023-05-14T09:00:15.169Z,18.91
2023-05-14T09:05:18.426Z,19.02
2023-05-14T09:10:21.080Z,19.15
2023-05-14T09:15:24.728Z,19.31
2023-05-14T09:20:26.817Z,19.43
2023-05-14T09:25:32.424Z,19.50
2023-05-14T09:30:41.370Z,19.58
2023-05-14T09:35:43.482Z,19.72
2023-05-14T09:40:46.715Z,19.84
2023-05-14T09:45:48.260Z,19.96
2023-05-14T09:50:49.876Z,20.04
2023-05-14T09:55:51.592Z,20.13
2023-05-14T10:00:58.761Z,20.25
2023-05-14T10:06:04.919Z,20.34
2023-05-14T10:11:12.405Z,20.43
2023-05-14T10:16:22.005Z,20.58
2023-05-14T10:21:24.373Z,20.71
2023-05-14T10:26:26.446Z,20.89
2023-05-14T10:31:45.302Z,20.95
2023-05-14T10:36:46.992Z,20.94
2023-05-14T10:41:48.504Z,20.89
2023-05-14T10:46:50.246Z,20.80
2023-05-14T10:51:53.516Z,20.84
2023-05-14T10:56:59.604Z,20.99
2023-05-14T11:02:04.792Z,21.12
2023-05-14T11:07:06.844Z,21.22
2023-05-14T11:12:09.162Z,21.24
2023-05-14T11:17:10.674Z,21.31
2023-05-14T11:22:15.180Z,21.34
2023-05-14T11:27:18.177Z,21.43
2023-05-14T11:32:20.543Z,21.43
2023-05-14T11:37:22.738Z,21.43
2023-05-14T11:42:25.832Z,21.44
2023-05-14T11:47:29.566Z,21.44
2023-05-14T11:52:31.322Z,21.45
2023-05-14T11:57:32.910Z,21.52
2023-05-14T12:02:34.762Z,21.66
2023-05-14T12:07:36.314Z,21.81
2023-05-14T12:12:37.824Z,21.91
2023-05-14T12:17:39.907Z,21.94
2023-05-14T12:22:49.037Z,22.12
2023-05-14T12:27:50.787Z,22.37
2023-05-14T12:32:53.171Z,22.57
2023-05-14T12:37:54.889Z,22.74
2023-05-14T12:42:57.020Z,22.94
2023-05-14T12:47:58.653Z,23.10
2023-05-14T12:53:00.285Z,23.15
2023-05-14T12:58:02.039Z,23.23
2023-05-14T13:03:03.652Z,23.41
2023-05-14T13:08:05.363Z,23.67
2023-05-14T13:13:06.912Z,23.55
2023-05-14T13:18:08.510Z,23.56
2023-05-14T13:23:10.111Z,23.74
2023-05-14T13:28:11.730Z,23.89
2023-05-14T13:33:13.345Z,24.34
2023-05-14T13:38:15.136Z,24.64
2023-05-14T13:43:17.021Z,24.73
2023-05-14T13:48:19.087Z,24.61
2023-05-14T13:53:22.949Z,24.60
2023-05-14T13:58:25.486Z,24.65
2023-05-14T14:03:27.075Z,24.79
2023-05-14T14:08:28.739Z,24.75
2023-05-14T14:13:30.293Z,24.53
2023-05-14T14:18:32.409Z,24.75
2023-05-14T14:23:34.091Z,24.88
2023-05-14T14:28:35.937Z,24.84
2023-05-14T14:33:37.539Z,24.76
2023-05-14T14:38:39.642Z,24.77
2023-05-14T14:43:41.443Z,24.77
2023-05-14T14:48:44.014Z,24.57
2023-05-14T14:53:45.549Z,24.45
2023-05-14T14:58:47.060Z,24.53
2023-05-14T15:03:49.146Z,24.62
2023-05-14T15:08:50.704Z,24.66
2023-05-14T15:13:52.323Z,24.53
2023-05-14T15:18:54.183Z,24.51
2023-05-14T15:23:56.005Z,24.29
2023-05-14T15:28:59.016Z,23.89
2023-05-14T15:34:00.838Z,23.79
2023-05-14T15:39:02.401Z,23.92
2023-05-14T15:44:04.126Z,24.22
2023-05-14T15:49:06.121Z,24.36
2023-05-14T15:54:07.681Z,24.19
2023-05-14T15:59:09.594Z,24.05
2023-05-14T16:04:14.328Z,24.20
2023-05-14T16:09:15.833Z,24.34
2023-05-14T16:14:18.476Z,24.35
2023-05-14T16:19:20.888Z,24.45
2023-05-14T16:24:22.424Z,24.33
2023-05-14T16:29:24.022Z,24.17
2023-05-14T16:34:25.583Z,24.00
2023-05-14T16:39:27.268Z,23.80
2023-05-14T16:44:28.836Z,23.58
2023-05-14T16:49:30.378Z,23.35
2023-05-14T16:54:31.905Z,23.18
2023-05-14T16:59:33.567Z,22.83
2023-05-14T17:04:38.810Z,22.42
2023-05-14T17:09:40.951Z,22.06
2023-05-14T17:14:44.600Z,21.69
2023-05-14T17:19:46.303Z,21.44
2023-05-14T17:24:47.800Z,21.21
2023-05-14T17:29:51.231Z,20.97
2023-05-14T17:34:52.845Z,20.74
2023-05-14T17:39:54.424Z,20.54
2023-05-14T17:44:55.942Z,20.34
2023-05-14T17:49:57.662Z,20.12
2023-05-14T17:54:59.227Z,19.94
2023-05-14T18:00:00.898Z,19.76
2023-05-14T18:05:03.037Z,19.57
2023-05-14T18:10:05.477Z,19.36
2023-05-14T18:15:07.471Z,19.18
2023-05-14T18:20:09.654Z,19.02
2023-05-14T18:25:12.882Z,18.85
2023-05-14T18:30:15.341Z,18.66
2023-05-14T18:35:16.911Z,18.49
2023-05-14T18:40:18.868Z,18.35
2023-05-14T18:45:21.675Z,18.24
2023-05-14T18:50:23.294Z,18.12
2023-05-14T18:55:25.119Z,18.02
2023-05-14T19:00:26.851Z,17.91
2023-05-14T19:05:28.389Z,17.78
2023-05-14T19:10:30.204Z,17.65
2023-05-14T19:15:32.450Z,17.54
2023-05-14T19:20:33.987Z,17.41
2023-05-14T19:25:35.671Z,17.28
2023-05-14T19:30:41.841Z,17.18
2023-05-14T19:35:43.524Z,17.09
2023-05-14T19:40:46.110Z,16.99
2023-05-14T19:45:47.873Z,16.90
2023-05-14T19:50:49.398Z,16.79
2023-05-14T19:55:50.885Z,16.70
2023-05-14T20:00:55.493Z,16.62
2023-05-14T20:05:58.030Z,16.53
2023-05-14T20:10:59.573Z,16.44
2023-05-14T20:16:01.364Z,16.36
2023-05-14T20:21:02.877Z,16.26
2023-05-14T20:26:04.477Z,16.18
2023-05-14T20:31:06.079Z,16.11
2023-05-14T20:36:07.935Z,16.05
2023-05-14T20:41:09.452Z,15.96
2023-05-14T20:46:11.098Z,15.89
2023-05-14T20:51:12.704Z,15.82
2023-05-14T20:56:14.308Z,15.76
2023-05-14T21:01:15.844Z,15.71
2023-05-14T21:06:17.329Z,15.65
2023-05-14T21:11:20.691Z,15.59
2023-05-14T21:16:22.447Z,15.53
2023-05-14T21:21:24.216Z,15.48
2023-05-14T21:26:26.032Z,15.43
2023-05-14T21:31:27.538Z,15.37
2023-05-14T21:36:29.070Z,15.32
2023-05-14T21:41:32.445Z,15.29
2023-05-14T21:46:34.136Z,15.24
2023-05-14T21:51:35.983Z,15.20
2023-05-14T21:56:37.524Z,15.16
2023-05-14T22:01:50.983Z,15.12
2023-05-14T22:07:00.641Z,15.07
2023-05-14T22:12:02.185Z,15.03
2023-05-14T22:17:04.740Z,14.99
2023-05-14T22:22:06.231Z,14.97
2023-05-14T22:27:07.775Z,14.95
2023-05-14T22:32:10.276Z,14.92
2023-05-14T22:37:11.776Z,14.90
2023-05-14T22:42:13.556Z,14.87
2023-05-14T22:47:15.994Z,14.86
2023-05-14T22:52:18.916Z,14.87
2023-05-14T22:57:20.575Z,14.87
2023-05-14T23:02:22.228Z,14.90
2023-05-14T23:07:23.802Z,14.92
2023-05-14T23:12:26.091Z,14.92
2023-05-14T23:17:27.677Z,14.90
2023-05-14T23:22:29.378Z,14.89
2023-05-14T23:27:30.864Z,14.88
2023-05-14T23:32:32.384Z,14.87
2023-05-14T23:37:33.988Z,14.83
2023-05-14T23:42:36.053Z,14.77
2023-05-14T23:47:37.600Z,14.69
2023-05-14T23:52:39.142Z,14.62
2023-05-14T23:57:41.125Z,14.57
